Hovedside
METAR-TAF:

METAR-TAF

Lufthavner :

Stauning lufthavn

Ringkøbing-Skjern, Danmark

breddegrad: 56-00N, lengdegrad: 008-21E, høyde over havet: 5 m

Gjeldene værobservasjon

Denne rapporten ble laget for 50 minutter siden, klokken 11:50 UTC
Vind 7 kt fra Sør
Temperatur 5°C
Luftfuktighet 93%
Trykk 1011 hPa
Sikt 10 km eller mer
Spredte skyer i en høyde av 1500 ft
Brutte skyer i en høyde av 20000 ft

METAR: EKVJ 241150Z 18007KT 9999 SCT015 BKN200 05/04 Q1011

Tid: 13:40 (12:40 UTC)

Varsel

Denne rapporten ble laget for 42 minutter siden, klokken 11:58 UTC
Varsel gyldig fra 24. klokken 12 UTC til 24. klokken 16 UTC
Vind 8 kt fra Sør
Sikt 10 km eller mer
Spredte skyer i en høyde av 1500 ft

TAF: EKVJ 241158Z 2412/2416 19008KT 9999 SCT015

Værobservasjoner og værvarsel for over 4000 flyplasser (METAR- og TAF-rapporter).

Tilgjengelige stasjoner er representert av de røde og gule prikkene på kartet.

Hold musepekeren over prikken for å se navnet på stasjonen.

Klikk så for å se værobservasjoner og -varsler.

For å forandre kartet kan du klikke på den grønne knappen med svart kryss for å zoome inn, på den grønne knappen med strek for å zoome ut, eller på de grønne pilene for å se tilstøtende kart.


METAR-TAF: